sensor_id;sensor_type;location;lat;lon;timestamp;P1;durP1;ratioP1;P2;durP2;ratioP2
18072;SDS011;9161;47.348;9.648;2022-10-18T00:02:18;6.87;;;2.67;;
18072;SDS011;9161;47.348;9.648;2022-10-18T00:07:02;7.93;;;2.97;;
18072;SDS011;9161;47.348;9.648;2022-10-18T00:11:45;8.40;;;2.87;;
18072;SDS011;9161;47.348;9.648;2022-10-18T00:16:30;9.50;;;3.03;;
18072;SDS011;9161;47.348;9.648;2022-10-18T00:21:15;7.70;;;2.93;;
18072;SDS011;9161;47.348;9.648;2022-10-18T00:26:00;6.73;;;2.53;;
18072;SDS011;9161;47.348;9.648;2022-10-18T00:30:46;5.57;;;2.57;;
18072;SDS011;9161;47.348;9.648;2022-10-18T00:35:34;9.00;;;3.10;;
18072;SDS011;9161;47.348;9.648;2022-10-18T00:40:17;9.30;;;2.87;;
18072;SDS011;9161;47.348;9.648;2022-10-18T00:45:04;9.20;;;3.53;;
18072;SDS011;9161;47.348;9.648;2022-10-18T00:50:00;8.90;;;3.40;;
18072;SDS011;9161;47.348;9.648;2022-10-18T00:54:48;12.07;;;3.70;;
18072;SDS011;9161;47.348;9.648;2022-10-18T00:59:33;10.27;;;3.90;;
18072;SDS011;9161;47.348;9.648;2022-10-18T01:04:18;8.23;;;3.63;;
18072;SDS011;9161;47.348;9.648;2022-10-18T01:09:07;7.73;;;3.27;;
18072;SDS011;9161;47.348;9.648;2022-10-18T01:13:59;7.50;;;3.70;;
18072;SDS011;9161;47.348;9.648;2022-10-18T01:18:54;7.17;;;4.10;;
18072;SDS011;9161;47.348;9.648;2022-10-18T01:29:10;17.67;;;4.97;;
18072;SDS011;9161;47.348;9.648;2022-10-18T01:34:04;11.37;;;3.63;;
18072;SDS011;9161;47.348;9.648;2022-10-18T01:38:52;8.33;;;3.70;;
18072;SDS011;9161;47.348;9.648;2022-10-18T01:43:38;11.23;;;4.10;;
18072;SDS011;9161;47.348;9.648;2022-10-18T01:48:23;10.83;;;4.70;;
18072;SDS011;9161;47.348;9.648;2022-10-18T01:53:21;12.57;;;4.83;;
18072;SDS011;9161;47.348;9.648;2022-10-18T01:58:10;8.13;;;3.93;;
18072;SDS011;9161;47.348;9.648;2022-10-18T02:03:03;8.93;;;4.30;;
18072;SDS011;9161;47.348;9.648;2022-10-18T02:07:55;7.43;;;4.30;;
18072;SDS011;9161;47.348;9.648;2022-10-18T02:13:03;7.70;;;3.40;;
18072;SDS011;9161;47.348;9.648;2022-10-18T02:17:47;11.83;;;4.47;;
18072;SDS011;9161;47.348;9.648;2022-10-18T02:22:33;8.53;;;4.03;;
18072;SDS011;9161;47.348;9.648;2022-10-18T02:27:19;5.03;;;3.13;;
18072;SDS011;9161;47.348;9.648;2022-10-18T02:32:07;11.80;;;3.60;;
18072;SDS011;9161;47.348;9.648;2022-10-18T02:36:56;8.07;;;4.10;;
18072;SDS011;9161;47.348;9.648;2022-10-18T02:41:41;9.27;;;3.43;;
18072;SDS011;9161;47.348;9.648;2022-10-18T02:46:25;5.43;;;3.33;;
18072;SDS011;9161;47.348;9.648;2022-10-18T02:51:10;7.00;;;3.47;;
18072;SDS011;9161;47.348;9.648;2022-10-18T02:55:53;9.57;;;3.70;;
18072;SDS011;9161;47.348;9.648;2022-10-18T03:00:37;5.83;;;3.70;;
18072;SDS011;9161;47.348;9.648;2022-10-18T03:05:20;8.47;;;4.20;;
18072;SDS011;9161;47.348;9.648;2022-10-18T03:10:06;7.10;;;3.50;;
18072;SDS011;9161;47.348;9.648;2022-10-18T03:14:50;7.77;;;3.80;;
18072;SDS011;9161;47.348;9.648;2022-10-18T03:19:33;7.07;;;3.90;;
18072;SDS011;9161;47.348;9.648;2022-10-18T03:24:19;6.70;;;3.60;;
18072;SDS011;9161;47.348;9.648;2022-10-18T03:29:03;8.27;;;3.77;;
18072;SDS011;9161;47.348;9.648;2022-10-18T03:33:47;8.57;;;3.90;;
18072;SDS011;9161;47.348;9.648;2022-10-18T03:38:31;9.93;;;4.53;;
18072;SDS011;9161;47.348;9.648;2022-10-18T03:43:14;7.93;;;3.60;;
18072;SDS011;9161;47.348;9.648;2022-10-18T03:47:59;7.00;;;3.97;;
18072;SDS011;9161;47.348;9.648;2022-10-18T03:52:42;7.80;;;3.90;;
18072;SDS011;9161;47.348;9.648;2022-10-18T03:57:26;12.13;;;4.23;;
18072;SDS011;9161;47.348;9.648;2022-10-18T04:02:09;7.43;;;4.47;;
18072;SDS011;9161;47.348;9.648;2022-10-18T04:06:54;6.73;;;3.60;;
18072;SDS011;9161;47.348;9.648;2022-10-18T04:11:38;12.20;;;3.90;;
18072;SDS011;9161;47.348;9.648;2022-10-18T04:16:21;5.33;;;3.20;;
18072;SDS011;9161;47.348;9.648;2022-10-18T04:21:05;10.30;;;4.23;;
18072;SDS011;9161;47.348;9.648;2022-10-18T04:25:50;9.77;;;4.40;;
18072;SDS011;9161;47.348;9.648;2022-10-18T04:30:34;7.13;;;3.90;;
18072;SDS011;9161;47.348;9.648;2022-10-18T04:35:17;10.40;;;3.77;;
18072;SDS011;9161;47.348;9.648;2022-10-18T04:40:05;7.77;;;3.77;;
18072;SDS011;9161;47.348;9.648;2022-10-18T04:44:51;11.90;;;3.10;;
18072;SDS011;9161;47.348;9.648;2022-10-18T04:49:34;5.37;;;2.60;;
18072;SDS011;9161;47.348;9.648;2022-10-18T04:54:18;4.03;;;2.33;;
18072;SDS011;9161;47.348;9.648;2022-10-18T04:59:05;11.57;;;2.80;;
18072;SDS011;9161;47.348;9.648;2022-10-18T05:03:51;7.57;;;2.53;;
18072;SDS011;9161;47.348;9.648;2022-10-18T05:08:36;7.30;;;2.67;;
18072;SDS011;9161;47.348;9.648;2022-10-18T05:13:20;8.33;;;2.53;;
18072;SDS011;9161;47.348;9.648;2022-10-18T05:18:03;8.13;;;3.00;;
18072;SDS011;9161;47.348;9.648;2022-10-18T05:22:48;7.80;;;3.20;;
18072;SDS011;9161;47.348;9.648;2022-10-18T05:27:31;10.20;;;3.20;;
18072;SDS011;9161;47.348;9.648;2022-10-18T05:32:15;11.57;;;3.30;;
18072;SDS011;9161;47.348;9.648;2022-10-18T05:36:58;12.33;;;3.43;;
18072;SDS011;9161;47.348;9.648;2022-10-18T05:41:43;11.53;;;3.03;;
18072;SDS011;9161;47.348;9.648;2022-10-18T05:46:27;13.70;;;3.57;;
18072;SDS011;9161;47.348;9.648;2022-10-18T05:51:10;8.10;;;3.23;;
18072;SDS011;9161;47.348;9.648;2022-10-18T05:55:54;11.47;;;3.03;;
18072;SDS011;9161;47.348;9.648;2022-10-18T06:00:42;11.63;;;3.70;;
18072;SDS011;9161;47.348;9.648;2022-10-18T06:05:26;14.33;;;4.40;;
18072;SDS011;9161;47.348;9.648;2022-10-18T06:10:10;10.83;;;3.87;;
18072;SDS011;9161;47.348;9.648;2022-10-18T06:14:53;15.83;;;3.67;;
18072;SDS011;9161;47.348;9.648;2022-10-18T06:19:38;9.77;;;4.13;;
18072;SDS011;9161;47.348;9.648;2022-10-18T06:24:23;20.63;;;4.40;;
18072;SDS011;9161;47.348;9.648;2022-10-18T06:29:07;19.87;;;4.23;;
18072;SDS011;9161;47.348;9.648;2022-10-18T06:33:51;16.07;;;4.23;;
18072;SDS011;9161;47.348;9.648;2022-10-18T06:38:36;18.13;;;4.13;;
18072;SDS011;9161;47.348;9.648;2022-10-18T06:43:20;19.50;;;4.73;;
18072;SDS011;9161;47.348;9.648;2022-10-18T06:48:03;29.73;;;5.50;;
18072;SDS011;9161;47.348;9.648;2022-10-18T06:52:47;18.17;;;4.43;;
18072;SDS011;9161;47.348;9.648;2022-10-18T06:57:34;16.13;;;3.20;;
18072;SDS011;9161;47.348;9.648;2022-10-18T07:02:18;7.70;;;3.10;;
18072;SDS011;9161;47.348;9.648;2022-10-18T07:07:02;9.73;;;2.40;;
18072;SDS011;9161;47.348;9.648;2022-10-18T07:11:45;9.37;;;1.90;;
18072;SDS011;9161;47.348;9.648;2022-10-18T07:16:30;3.30;;;1.93;;
18072;SDS011;9161;47.348;9.648;2022-10-18T07:21:16;4.07;;;1.97;;
18072;SDS011;9161;47.348;9.648;2022-10-18T07:26:00;9.10;;;3.47;;
18072;SDS011;9161;47.348;9.648;2022-10-18T07:30:44;7.77;;;2.90;;
18072;SDS011;9161;47.348;9.648;2022-10-18T07:35:29;17.90;;;4.17;;
18072;SDS011;9161;47.348;9.648;2022-10-18T07:40:12;12.97;;;4.20;;
18072;SDS011;9161;47.348;9.648;2022-10-18T07:44:56;18.63;;;4.03;;
18072;SDS011;9161;47.348;9.648;2022-10-18T07:49:42;9.87;;;3.63;;
18072;SDS011;9161;47.348;9.648;2022-10-18T07:54:27;4.73;;;2.60;;
18072;SDS011;9161;47.348;9.648;2022-10-18T07:59:11;4.33;;;2.50;;
18072;SDS011;9161;47.348;9.648;2022-10-18T08:03:55;5.03;;;1.90;;
18072;SDS011;9161;47.348;9.648;2022-10-18T08:08:46;5.30;;;2.67;;
18072;SDS011;9161;47.348;9.648;2022-10-18T08:13:32;9.83;;;2.93;;
18072;SDS011;9161;47.348;9.648;2022-10-18T08:18:15;10.83;;;3.60;;
18072;SDS011;9161;47.348;9.648;2022-10-18T08:22:59;9.17;;;3.93;;
18072;SDS011;9161;47.348;9.648;2022-10-18T08:27:42;10.77;;;3.23;;
18072;SDS011;9161;47.348;9.648;2022-10-18T08:32:28;11.37;;;3.70;;
18072;SDS011;9161;47.348;9.648;2022-10-18T08:37:11;14.97;;;3.90;;
18072;SDS011;9161;47.348;9.648;2022-10-18T08:47:10;8.25;;;4.70;;
18072;SDS011;9161;47.348;9.648;2022-10-18T08:51:58;14.88;;;4.97;;
18072;SDS011;9161;47.348;9.648;2022-10-18T08:56:44;11.20;;;4.45;;
18072;SDS011;9161;47.348;9.648;2022-10-18T09:01:40;17.52;;;4.07;;
18072;SDS011;9161;47.348;9.648;2022-10-18T09:06:31;11.13;;;3.40;;
18072;SDS011;9161;47.348;9.648;2022-10-18T09:11:23;10.18;;;3.15;;
18072;SDS011;9161;47.348;9.648;2022-10-18T09:16:15;14.27;;;3.10;;
18072;SDS011;9161;47.348;9.648;2022-10-18T09:21:07;8.45;;;2.92;;
18072;SDS011;9161;47.348;9.648;2022-10-18T09:26:01;8.13;;;2.80;;
18072;SDS011;9161;47.348;9.648;2022-10-18T09:30:56;8.45;;;2.70;;
18072;SDS011;9161;47.348;9.648;2022-10-18T09:35:47;13.63;;;2.78;;
18072;SDS011;9161;47.348;9.648;2022-10-18T09:40:35;5.97;;;2.53;;
18072;SDS011;9161;47.348;9.648;2022-10-18T09:45:30;8.68;;;2.42;;
18072;SDS011;9161;47.348;9.648;2022-10-18T09:50:21;6.28;;;2.38;;
18072;SDS011;9161;47.348;9.648;2022-10-18T09:55:11;9.73;;;2.45;;
18072;SDS011;9161;47.348;9.648;2022-10-18T10:00:00;12.23;;;2.83;;
18072;SDS011;9161;47.348;9.648;2022-10-18T10:04:45;9.20;;;2.25;;
18072;SDS011;9161;47.348;9.648;2022-10-18T10:09:35;9.32;;;2.72;;
18072;SDS011;9161;47.348;9.648;2022-10-18T10:14:22;8.07;;;2.38;;
18072;SDS011;9161;47.348;9.648;2022-10-18T10:19:13;9.27;;;2.60;;
18072;SDS011;9161;47.348;9.648;2022-10-18T10:23:59;8.25;;;2.53;;
18072;SDS011;9161;47.348;9.648;2022-10-18T10:28:44;7.35;;;2.22;;
18072;SDS011;9161;47.348;9.648;2022-10-18T10:33:31;5.05;;;2.30;;
18072;SDS011;9161;47.348;9.648;2022-10-18T10:38:21;5.78;;;2.30;;
18072;SDS011;9161;47.348;9.648;2022-10-18T10:43:11;9.45;;;2.28;;
18072;SDS011;9161;47.348;9.648;2022-10-18T10:48:19;7.32;;;2.20;;
18072;SDS011;9161;47.348;9.648;2022-10-18T10:53:04;7.10;;;2.38;;
18072;SDS011;9161;47.348;9.648;2022-10-18T10:57:48;9.45;;;2.97;;
18072;SDS011;9161;47.348;9.648;2022-10-18T11:02:34;6.90;;;2.28;;
18072;SDS011;9161;47.348;9.648;2022-10-18T11:07:30;20.65;;;3.10;;
18072;SDS011;9161;47.348;9.648;2022-10-18T11:12:25;10.30;;;3.30;;
18072;SDS011;9161;47.348;9.648;2022-10-18T11:17:16;8.50;;;2.47;;
18072;SDS011;9161;47.348;9.648;2022-10-18T11:22:08;9.60;;;2.72;;
18072;SDS011;9161;47.348;9.648;2022-10-18T11:26:58;13.75;;;3.05;;
18072;SDS011;9161;47.348;9.648;2022-10-18T11:31:49;7.38;;;2.65;;
18072;SDS011;9161;47.348;9.648;2022-10-18T11:36:50;5.10;;;2.30;;
18072;SDS011;9161;47.348;9.648;2022-10-18T11:42:07;5.68;;;2.20;;
18072;SDS011;9161;47.348;9.648;2022-10-18T11:47:00;10.82;;;2.67;;
18072;SDS011;9161;47.348;9.648;2022-10-18T11:51:50;7.22;;;2.10;;
18072;SDS011;9161;47.348;9.648;2022-10-18T11:56:51;3.35;;;2.20;;
18072;SDS011;9161;47.348;9.648;2022-10-18T12:01:48;6.15;;;2.70;;
18072;SDS011;9161;47.348;9.648;2022-10-18T12:06:38;9.05;;;3.05;;
18072;SDS011;9161;47.348;9.648;2022-10-18T12:11:25;26.83;;;3.70;;
18072;SDS011;9161;47.348;9.648;2022-10-18T12:16:11;6.00;;;2.65;;
18072;SDS011;9161;47.348;9.648;2022-10-18T12:20:57;10.75;;;2.95;;
18072;SDS011;9161;47.348;9.648;2022-10-18T12:25:43;7.85;;;3.00;;
18072;SDS011;9161;47.348;9.648;2022-10-18T12:30:30;6.50;;;2.70;;
18072;SDS011;9161;47.348;9.648;2022-10-18T12:35:19;7.45;;;2.72;;
18072;SDS011;9161;47.348;9.648;2022-10-18T12:40:08;5.20;;;2.70;;
18072;SDS011;9161;47.348;9.648;2022-10-18T12:45:02;11.55;;;2.78;;
18072;SDS011;9161;47.348;9.648;2022-10-18T12:49:54;10.30;;;3.45;;
18072;SDS011;9161;47.348;9.648;2022-10-18T12:54:39;7.80;;;2.60;;
18072;SDS011;9161;47.348;9.648;2022-10-18T13:04:34;4.68;;;2.20;;
18072;SDS011;9161;47.348;9.648;2022-10-18T13:09:19;3.35;;;2.33;;
18072;SDS011;9161;47.348;9.648;2022-10-18T13:19:16;6.70;;;2.58;;
18072;SDS011;9161;47.348;9.648;2022-10-18T13:29:12;23.50;;;3.95;;
18072;SDS011;9161;47.348;9.648;2022-10-18T13:34:20;6.00;;;2.58;;
18072;SDS011;9161;47.348;9.648;2022-10-18T13:39:14;5.10;;;2.72;;
18072;SDS011;9161;47.348;9.648;2022-10-18T13:44:09;9.60;;;3.50;;
18072;SDS011;9161;47.348;9.648;2022-10-18T13:49:04;18.42;;;3.80;;
18072;SDS011;9161;47.348;9.648;2022-10-18T13:54:20;7.47;;;3.40;;
18072;SDS011;9161;47.348;9.648;2022-10-18T14:09:25;10.55;;;3.50;;
18072;SDS011;9161;47.348;9.648;2022-10-18T14:14:27;16.63;;;3.75;;
18072;SDS011;9161;47.348;9.648;2022-10-18T14:19:16;6.35;;;3.45;;
18072;SDS011;9161;47.348;9.648;2022-10-18T14:24:13;11.75;;;3.03;;
18072;SDS011;9161;47.348;9.648;2022-10-18T14:29:01;6.93;;;3.10;;
18072;SDS011;9161;47.348;9.648;2022-10-18T14:33:46;11.13;;;2.92;;
18072;SDS011;9161;47.348;9.648;2022-10-18T14:38:43;8.02;;;3.00;;
18072;SDS011;9161;47.348;9.648;2022-10-18T14:43:31;9.77;;;3.05;;
18072;SDS011;9161;47.348;9.648;2022-10-18T14:48:15;7.30;;;2.85;;
18072;SDS011;9161;47.348;9.648;2022-10-18T14:53:05;12.25;;;3.30;;
18072;SDS011;9161;47.348;9.648;2022-10-18T14:57:49;8.00;;;2.78;;
18072;SDS011;9161;47.348;9.648;2022-10-18T15:02:35;8.13;;;2.63;;
18072;SDS011;9161;47.348;9.648;2022-10-18T15:07:20;44.03;;;5.00;;
18072;SDS011;9161;47.348;9.648;2022-10-18T15:12:04;14.95;;;3.10;;
18072;SDS011;9161;47.348;9.648;2022-10-18T15:16:49;9.65;;;3.30;;
18072;SDS011;9161;47.348;9.648;2022-10-18T15:21:35;17.60;;;3.20;;
18072;SDS011;9161;47.348;9.648;2022-10-18T15:26:20;8.40;;;3.00;;
18072;SDS011;9161;47.348;9.648;2022-10-18T15:31:14;6.80;;;2.70;;
18072;SDS011;9161;47.348;9.648;2022-10-18T15:36:07;8.57;;;3.42;;
18072;SDS011;9161;47.348;9.648;2022-10-18T15:40:53;25.27;;;3.67;;
18072;SDS011;9161;47.348;9.648;2022-10-18T15:45:38;9.93;;;3.08;;
18072;SDS011;9161;47.348;9.648;2022-10-18T15:50:37;6.07;;;2.83;;
18072;SDS011;9161;47.348;9.648;2022-10-18T16:00:32;8.73;;;2.72;;
18072;SDS011;9161;47.348;9.648;2022-10-18T16:05:16;8.20;;;3.22;;
18072;SDS011;9161;47.348;9.648;2022-10-18T16:09:59;5.75;;;2.90;;
18072;SDS011;9161;47.348;9.648;2022-10-18T16:14:43;14.27;;;3.20;;
18072;SDS011;9161;47.348;9.648;2022-10-18T16:19:28;6.45;;;3.03;;
18072;SDS011;9161;47.348;9.648;2022-10-18T16:24:12;10.98;;;3.33;;
18072;SDS011;9161;47.348;9.648;2022-10-18T16:28:56;13.80;;;3.88;;
18072;SDS011;9161;47.348;9.648;2022-10-18T16:33:40;17.23;;;4.60;;
18072;SDS011;9161;47.348;9.648;2022-10-18T16:38:27;16.65;;;4.15;;
18072;SDS011;9161;47.348;9.648;2022-10-18T16:43:15;9.52;;;4.05;;
18072;SDS011;9161;47.348;9.648;2022-10-18T16:47:58;13.00;;;3.88;;
18072;SDS011;9161;47.348;9.648;2022-10-18T16:52:42;10.18;;;3.33;;
18072;SDS011;9161;47.348;9.648;2022-10-18T16:57:27;10.05;;;3.42;;
18072;SDS011;9161;47.348;9.648;2022-10-18T17:02:11;7.03;;;3.67;;
18072;SDS011;9161;47.348;9.648;2022-10-18T17:06:55;13.98;;;5.43;;
18072;SDS011;9161;47.348;9.648;2022-10-18T17:11:41;14.93;;;5.28;;
18072;SDS011;9161;47.348;9.648;2022-10-18T17:16:27;12.27;;;4.35;;
18072;SDS011;9161;47.348;9.648;2022-10-18T17:21:12;10.60;;;5.03;;
18072;SDS011;9161;47.348;9.648;2022-10-18T17:25:56;14.00;;;5.33;;
18072;SDS011;9161;47.348;9.648;2022-10-18T17:30:55;11.80;;;5.30;;
18072;SDS011;9161;47.348;9.648;2022-10-18T17:35:41;11.33;;;5.57;;
18072;SDS011;9161;47.348;9.648;2022-10-18T17:40:27;17.97;;;5.57;;
18072;SDS011;9161;47.348;9.648;2022-10-18T17:45:12;13.73;;;4.60;;
18072;SDS011;9161;47.348;9.648;2022-10-18T17:49:57;11.80;;;4.60;;
18072;SDS011;9161;47.348;9.648;2022-10-18T17:54:43;11.53;;;4.33;;
18072;SDS011;9161;47.348;9.648;2022-10-18T17:59:28;13.90;;;5.67;;
18072;SDS011;9161;47.348;9.648;2022-10-18T18:04:13;12.07;;;5.63;;
18072;SDS011;9161;47.348;9.648;2022-10-18T18:08:58;14.97;;;5.13;;
18072;SDS011;9161;47.348;9.648;2022-10-18T18:13:47;10.97;;;4.77;;
18072;SDS011;9161;47.348;9.648;2022-10-18T18:18:32;9.83;;;4.87;;
18072;SDS011;9161;47.348;9.648;2022-10-18T18:23:16;11.60;;;4.50;;
18072;SDS011;9161;47.348;9.648;2022-10-18T18:28:01;12.67;;;4.77;;
18072;SDS011;9161;47.348;9.648;2022-10-18T18:32:50;12.23;;;4.60;;
18072;SDS011;9161;47.348;9.648;2022-10-18T18:37:36;12.83;;;4.33;;
18072;SDS011;9161;47.348;9.648;2022-10-18T18:42:21;9.77;;;4.87;;
18072;SDS011;9161;47.348;9.648;2022-10-18T18:47:06;10.30;;;5.13;;
18072;SDS011;9161;47.348;9.648;2022-10-18T18:51:55;13.20;;;5.70;;
18072;SDS011;9161;47.348;9.648;2022-10-18T18:56:41;16.40;;;5.30;;
18072;SDS011;9161;47.348;9.648;2022-10-18T19:01:29;14.43;;;4.47;;
18072;SDS011;9161;47.348;9.648;2022-10-18T19:06:16;10.77;;;5.30;;
18072;SDS011;9161;47.348;9.648;2022-10-18T19:11:04;13.43;;;5.60;;
18072;SDS011;9161;47.348;9.648;2022-10-18T19:15:50;9.87;;;5.40;;
18072;SDS011;9161;47.348;9.648;2022-10-18T19:20:36;12.10;;;5.07;;
18072;SDS011;9161;47.348;9.648;2022-10-18T19:25:21;11.30;;;4.60;;
18072;SDS011;9161;47.348;9.648;2022-10-18T19:30:09;15.20;;;4.63;;
18072;SDS011;9161;47.348;9.648;2022-10-18T19:34:55;10.27;;;4.80;;
18072;SDS011;9161;47.348;9.648;2022-10-18T19:39:39;16.53;;;5.57;;
18072;SDS011;9161;47.348;9.648;2022-10-18T19:44:26;16.50;;;5.70;;
18072;SDS011;9161;47.348;9.648;2022-10-18T19:49:14;13.23;;;6.50;;
18072;SDS011;9161;47.348;9.648;2022-10-18T19:53:59;16.13;;;7.87;;
18072;SDS011;9161;47.348;9.648;2022-10-18T19:58:44;15.93;;;7.37;;
18072;SDS011;9161;47.348;9.648;2022-10-18T20:03:31;11.60;;;7.13;;
18072;SDS011;9161;47.348;9.648;2022-10-18T20:08:18;15.70;;;6.50;;
18072;SDS011;9161;47.348;9.648;2022-10-18T20:13:01;13.77;;;6.23;;
18072;SDS011;9161;47.348;9.648;2022-10-18T20:17:45;12.97;;;6.20;;
18072;SDS011;9161;47.348;9.648;2022-10-18T20:22:30;15.87;;;6.50;;
18072;SDS011;9161;47.348;9.648;2022-10-18T20:27:16;10.73;;;5.53;;
18072;SDS011;9161;47.348;9.648;2022-10-18T20:32:00;10.83;;;5.17;;
18072;SDS011;9161;47.348;9.648;2022-10-18T20:36:43;12.47;;;5.10;;
18072;SDS011;9161;47.348;9.648;2022-10-18T20:41:28;14.07;;;5.77;;
18072;SDS011;9161;47.348;9.648;2022-10-18T20:46:14;15.33;;;6.50;;
18072;SDS011;9161;47.348;9.648;2022-10-18T20:51:01;11.60;;;5.80;;
18072;SDS011;9161;47.348;9.648;2022-10-18T20:55:45;10.13;;;5.10;;
18072;SDS011;9161;47.348;9.648;2022-10-18T21:00:29;10.40;;;4.87;;
18072;SDS011;9161;47.348;9.648;2022-10-18T21:05:14;10.53;;;5.40;;
18072;SDS011;9161;47.348;9.648;2022-10-18T21:09:58;11.03;;;4.80;;
18072;SDS011;9161;47.348;9.648;2022-10-18T21:14:43;12.33;;;5.83;;
18072;SDS011;9161;47.348;9.648;2022-10-18T21:19:27;15.77;;;6.40;;
18072;SDS011;9161;47.348;9.648;2022-10-18T21:24:13;13.37;;;6.10;;
18072;SDS011;9161;47.348;9.648;2022-10-18T21:28:57;16.83;;;7.20;;
18072;SDS011;9161;47.348;9.648;2022-10-18T21:33:42;11.90;;;7.03;;
18072;SDS011;9161;47.348;9.648;2022-10-18T21:38:27;22.07;;;8.07;;
18072;SDS011;9161;47.348;9.648;2022-10-18T21:43:13;18.70;;;7.90;;
18072;SDS011;9161;47.348;9.648;2022-10-18T21:47:57;15.70;;;6.90;;
18072;SDS011;9161;47.348;9.648;2022-10-18T21:52:41;15.50;;;5.17;;
18072;SDS011;9161;47.348;9.648;2022-10-18T21:57:24;12.90;;;6.90;;
18072;SDS011;9161;47.348;9.648;2022-10-18T22:02:09;13.80;;;5.53;;
18072;SDS011;9161;47.348;9.648;2022-10-18T22:06:53;14.67;;;5.33;;
18072;SDS011;9161;47.348;9.648;2022-10-18T22:11:39;13.13;;;5.23;;
18072;SDS011;9161;47.348;9.648;2022-10-18T22:16:26;15.13;;;5.50;;
18072;SDS011;9161;47.348;9.648;2022-10-18T22:21:12;14.13;;;5.77;;
18072;SDS011;9161;47.348;9.648;2022-10-18T22:26:00;9.67;;;4.97;;
18072;SDS011;9161;47.348;9.648;2022-10-18T22:30:44;9.80;;;5.70;;
18072;SDS011;9161;47.348;9.648;2022-10-18T22:35:28;18.47;;;5.47;;
18072;SDS011;9161;47.348;9.648;2022-10-18T22:40:14;9.50;;;5.07;;
18072;SDS011;9161;47.348;9.648;2022-10-18T22:44:57;7.53;;;5.13;;
18072;SDS011;9161;47.348;9.648;2022-10-18T22:49:41;10.77;;;4.47;;
18072;SDS011;9161;47.348;9.648;2022-10-18T22:54:24;6.97;;;4.00;;
18072;SDS011;9161;47.348;9.648;2022-10-18T22:59:09;8.47;;;5.27;;
18072;SDS011;9161;47.348;9.648;2022-10-18T23:03:53;12.40;;;4.10;;
18072;SDS011;9161;47.348;9.648;2022-10-18T23:08:37;11.10;;;4.93;;
18072;SDS011;9161;47.348;9.648;2022-10-18T23:13:21;13.57;;;5.40;;
18072;SDS011;9161;47.348;9.648;2022-10-18T23:18:07;7.17;;;5.03;;
18072;SDS011;9161;47.348;9.648;2022-10-18T23:22:50;6.23;;;3.33;;
18072;SDS011;9161;47.348;9.648;2022-10-18T23:27:34;6.87;;;3.90;;
18072;SDS011;9161;47.348;9.648;2022-10-18T23:32:18;9.17;;;4.90;;
18072;SDS011;9161;47.348;9.648;2022-10-18T23:37:03;11.90;;;4.77;;
18072;SDS011;9161;47.348;9.648;2022-10-18T23:41:46;10.33;;;4.57;;
18072;SDS011;9161;47.348;9.648;2022-10-18T23:46:30;11.43;;;4.73;;
18072;SDS011;9161;47.348;9.648;2022-10-18T23:51:14;14.00;;;6.53;;
18072;SDS011;9161;47.348;9.648;2022-10-18T23:56:00;16.77;;;6.23;;
